createdAt,value
2022-11-27T00:01:19.872Z,99207.56
2022-11-27T00:04:21.959Z,99205.47
2022-11-27T00:07:24.010Z,99200.41
2022-11-27T00:10:26.003Z,99204.63
2022-11-27T00:13:27.952Z,99208.00
2022-11-27T00:16:32.512Z,99204.97
2022-11-27T00:19:34.415Z,99203.47
2022-11-27T00:22:37.695Z,99202.13
2022-11-27T00:25:39.718Z,99211.00
2022-11-27T00:28:41.629Z,99206.81
2022-11-27T00:31:43.581Z,99212.19
2022-11-27T00:34:46.156Z,99218.41
2022-11-27T00:37:48.147Z,99214.28
2022-11-27T00:40:50.248Z,99220.38
2022-11-27T00:43:52.629Z,99223.25
2022-11-27T00:46:54.462Z,99230.22
2022-11-27T00:49:56.542Z,99223.75
2022-11-27T00:52:59.748Z,99222.91
2022-11-27T00:56:02.210Z,99221.47
2022-11-27T00:59:06.385Z,99221.56
2022-11-27T01:02:08.194Z,99226.41
2022-11-27T01:05:10.343Z,99222.41
2022-11-27T01:08:12.147Z,99217.81
2022-11-27T01:11:16.353Z,99228.88
2022-11-27T01:14:19.061Z,99214.19
2022-11-27T01:17:21.052Z,99218.38
2022-11-27T01:20:23.331Z,99232.31
2022-11-27T01:23:25.418Z,99225.44
2022-11-27T01:26:27.689Z,99227.13
2022-11-27T01:29:29.481Z,99219.72
2022-11-27T01:32:31.257Z,99212.34
2022-11-27T01:35:33.859Z,99206.72
2022-11-27T01:38:36.333Z,99211.69
2022-11-27T01:41:41.367Z,99210.66
2022-11-27T01:44:49.383Z,99205.56
2022-11-27T01:47:57.097Z,99203.97
2022-11-27T01:50:59.061Z,99199.91
2022-11-27T01:54:01.030Z,99198.25
2022-11-27T01:57:07.679Z,99207.31
2022-11-27T02:00:14.187Z,99204.44
2022-11-27T02:03:16.510Z,99204.81
2022-11-27T02:06:18.334Z,99210.50
2022-11-27T02:09:20.239Z,99213.56
2022-11-27T02:12:42.222Z,99209.47
2022-11-27T02:15:50.316Z,99202.13
2022-11-27T02:19:15.469Z,99210.78
2022-11-27T02:22:23.913Z,99212.22
2022-11-27T02:26:03.190Z,99215.75
2022-11-27T02:29:10.119Z,99216.75
2022-11-27T02:32:19.069Z,99217.94
2022-11-27T02:35:33.838Z,99217.94
2022-11-27T02:38:46.551Z,99214.56
2022-11-27T02:41:52.969Z,99217.06
2022-11-27T02:45:01.992Z,99224.03
2022-11-27T02:48:05.093Z,99232.75
2022-11-27T02:51:10.086Z,99233.53
2022-11-27T02:54:15.942Z,99241.38
2022-11-27T02:57:20.261Z,99236.19
2022-11-27T03:00:22.451Z,99238.56
2022-11-27T03:03:34.672Z,99233.94
2022-11-27T03:06:56.315Z,99242.59
2022-11-27T03:10:02.374Z,99245.13
2022-11-27T03:13:04.162Z,99238.06
2022-11-27T03:16:13.350Z,99243.88
2022-11-27T03:19:18.480Z,99242.94
2022-11-27T03:22:20.485Z,99232.41
2022-11-27T03:25:23.663Z,99241.28
2022-11-27T03:28:25.417Z,99244.50
2022-11-27T03:31:27.477Z,99245.00
2022-11-27T03:34:29.421Z,99243.09
2022-11-27T03:37:33.325Z,99252.88
2022-11-27T03:41:07.839Z,99245.69
2022-11-27T03:44:38.142Z,99246.88
2022-11-27T03:47:55.022Z,99240.34
2022-11-27T03:51:26.426Z,99248.22
2022-11-27T03:54:50.137Z,99246.41
2022-11-27T03:58:00.684Z,99237.69
2022-11-27T04:01:04.427Z,99239.34
2022-11-27T04:04:06.840Z,99240.00
2022-11-27T04:07:15.175Z,99239.03
2022-11-27T04:10:17.145Z,99239.19
2022-11-27T04:13:19.006Z,99239.13
2022-11-27T04:16:21.197Z,99237.50
2022-11-27T04:19:23.004Z,99235.13
2022-11-27T04:22:24.903Z,99239.34
2022-11-27T04:25:26.932Z,99229.88
2022-11-27T04:28:28.662Z,99236.00
2022-11-27T04:31:30.415Z,99229.25
2022-11-27T04:34:32.801Z,99225.84
2022-11-27T04:37:34.637Z,99226.91
2022-11-27T04:40:36.624Z,99224.22
2022-11-27T04:43:39.561Z,99225.31
2022-11-27T04:46:41.476Z,99221.22
2022-11-27T04:49:43.597Z,99229.00
2022-11-27T04:52:45.278Z,99221.72
2022-11-27T04:55:47.348Z,99216.19
2022-11-27T04:58:49.235Z,99217.53
2022-11-27T05:01:51.009Z,99217.44
2022-11-27T05:04:53.516Z,99218.06
2022-11-27T05:07:55.865Z,99218.97
2022-11-27T05:11:05.510Z,99223.16
2022-11-27T05:14:18.839Z,99222.59
2022-11-27T05:17:21.498Z,99222.94
2022-11-27T05:20:23.982Z,99221.84
2022-11-27T05:23:28.298Z,99227.63
2022-11-27T05:26:32.849Z,99226.97
2022-11-27T05:29:34.733Z,99214.03
2022-11-27T05:32:39.448Z,99223.50
2022-11-27T05:35:49.383Z,99214.53
2022-11-27T05:38:54.407Z,99210.50
2022-11-27T05:41:57.379Z,99217.88
2022-11-27T05:45:00.025Z,99223.59
2022-11-27T05:48:02.958Z,99215.88
2022-11-27T05:51:05.704Z,99222.00
2022-11-27T05:54:07.995Z,99219.50
2022-11-27T05:57:12.566Z,99211.34
2022-11-27T06:00:15.000Z,99212.50
2022-11-27T06:03:20.066Z,99219.03
2022-11-27T06:06:22.302Z,99214.09
2022-11-27T06:09:24.166Z,99208.97
2022-11-27T06:12:25.993Z,99198.03
2022-11-27T06:15:28.331Z,99200.31
2022-11-27T06:18:30.365Z,99203.53
2022-11-27T06:21:32.269Z,99201.03
2022-11-27T06:24:35.673Z,99201.44
2022-11-27T06:27:37.740Z,99208.03
2022-11-27T06:30:39.873Z,99198.09
2022-11-27T06:33:42.531Z,99205.44
2022-11-27T06:36:44.452Z,99206.66
2022-11-27T06:39:49.200Z,99210.63
2022-11-27T06:42:51.748Z,99219.78
2022-11-27T06:45:59.108Z,99222.44
2022-11-27T06:49:01.178Z,99211.69
2022-11-27T06:52:03.500Z,99221.00
2022-11-27T06:55:05.608Z,99219.97
2022-11-27T06:58:07.482Z,99226.31
2022-11-27T07:01:13.329Z,99231.50
2022-11-27T07:04:16.215Z,99237.69
2022-11-27T07:07:18.168Z,99230.91
2022-11-27T07:10:20.151Z,99240.19
2022-11-27T07:13:21.833Z,99237.53
2022-11-27T07:16:24.401Z,99241.38
2022-11-27T07:19:26.745Z,99238.84
2022-11-27T07:22:28.869Z,99230.75
2022-11-27T07:25:30.725Z,99233.75
2022-11-27T07:28:32.578Z,99231.84
2022-11-27T07:31:34.600Z,99233.28
2022-11-27T07:34:36.548Z,99227.75
2022-11-27T07:37:39.619Z,99231.44
2022-11-27T07:40:41.471Z,99239.34
2022-11-27T07:43:44.371Z,99236.97
2022-11-27T07:46:46.237Z,99237.69
2022-11-27T07:49:48.136Z,99241.63
2022-11-27T07:52:50.038Z,99242.00
2022-11-27T07:55:52.530Z,99242.59
2022-11-27T07:58:54.869Z,99239.81
2022-11-27T08:01:57.005Z,99246.94
2022-11-27T08:04:58.853Z,99241.84
2022-11-27T08:08:01.691Z,99241.06
2022-11-27T08:11:03.591Z,99239.66
2022-11-27T08:14:07.025Z,99235.38
2022-11-27T08:17:12.057Z,99251.84
2022-11-27T08:20:13.810Z,99236.91
2022-11-27T08:23:15.740Z,99232.88
2022-11-27T08:26:17.566Z,99232.78
2022-11-27T08:29:19.363Z,99235.50
2022-11-27T08:32:21.298Z,99243.16
2022-11-27T08:35:23.336Z,99244.25
2022-11-27T08:38:25.843Z,99239.06
2022-11-27T08:41:30.666Z,99240.44
2022-11-27T08:44:32.786Z,99238.19
2022-11-27T08:47:34.856Z,99233.91
2022-11-27T08:50:38.175Z,99232.03
2022-11-27T08:53:40.186Z,99236.53
2022-11-27T08:56:44.568Z,99237.25
2022-11-27T08:59:46.553Z,99237.44
2022-11-27T09:02:48.409Z,99237.75
2022-11-27T09:05:50.297Z,99237.38
2022-11-27T09:08:52.286Z,99228.59
2022-11-27T09:11:55.032Z,99219.13
2022-11-27T09:14:57.345Z,99217.16
2022-11-27T09:17:59.901Z,99220.69
2022-11-27T09:21:07.026Z,99217.88
2022-11-27T09:24:09.509Z,99214.88
2022-11-27T09:27:11.417Z,99213.53
2022-11-27T09:30:13.676Z,99204.19
2022-11-27T09:33:15.612Z,99212.59
2022-11-27T09:36:22.922Z,99203.63
2022-11-27T09:39:27.053Z,99208.38
2022-11-27T09:42:39.988Z,99202.34
2022-11-27T09:45:49.189Z,99207.38
2022-11-27T09:48:51.455Z,99210.06
2022-11-27T09:51:53.552Z,99199.41
2022-11-27T09:55:18.806Z,99194.97
2022-11-27T09:58:36.371Z,99176.13
2022-11-27T10:01:45.262Z,99177.25
2022-11-27T10:05:12.968Z,99180.91
2022-11-27T10:08:24.860Z,99176.78
2022-11-27T10:11:37.803Z,99172.97
2022-11-27T10:15:00.307Z,99168.09
2022-11-27T10:18:13.887Z,99161.50
2022-11-27T10:21:26.293Z,99161.53
2022-11-27T10:24:40.005Z,99151.50
2022-11-27T10:27:57.641Z,99152.63
2022-11-27T10:31:04.436Z,99152.97
2022-11-27T10:34:21.196Z,99143.38
2022-11-27T10:37:42.733Z,99139.91
2022-11-27T10:40:53.778Z,99142.13
2022-11-27T10:43:59.158Z,99134.56
2022-11-27T10:47:04.406Z,99127.06
2022-11-27T10:50:14.822Z,99129.13
2022-11-27T10:53:19.716Z,99123.41
2022-11-27T10:56:56.957Z,99121.28
2022-11-27T11:00:11.106Z,99119.91
2022-11-27T11:03:19.403Z,99112.28
2022-11-27T11:06:26.699Z,99108.59
2022-11-27T11:09:34.963Z,99101.69
2022-11-27T11:12:37.264Z,99095.09
2022-11-27T11:15:57.691Z,99098.19
2022-11-27T11:19:01.674Z,99095.34
2022-11-27T11:22:16.730Z,99071.81
2022-11-27T11:25:20.343Z,99075.25
2022-11-27T11:28:22.925Z,99075.03
2022-11-27T11:31:39.298Z,99079.38
2022-11-27T11:34:47.682Z,99076.91
2022-11-27T11:37:49.698Z,99077.94
2022-11-27T11:41:07.096Z,99075.09
2022-11-27T11:44:23.217Z,99074.66
2022-11-27T11:47:26.837Z,99062.78
2022-11-27T11:50:41.272Z,99059.94
2022-11-27T11:53:47.190Z,99056.31
2022-11-27T11:56:52.860Z,99053.41
2022-11-27T12:00:07.136Z,99051.91
2022-11-27T12:03:34.734Z,99038.56
2022-11-27T12:07:12.316Z,99040.78
2022-11-27T12:10:39.151Z,99036.25
2022-11-27T12:13:48.739Z,99025.84
2022-11-27T12:17:17.697Z,99024.91
2022-11-27T12:20:50.644Z,99028.25
2022-11-27T12:24:12.860Z,99032.66
2022-11-27T12:27:20.687Z,99026.53
2022-11-27T12:30:26.745Z,99024.97
2022-11-27T12:33:40.887Z,99027.63
2022-11-27T12:37:18.932Z,99025.41
2022-11-27T12:40:42.684Z,99033.47
2022-11-27T12:43:48.649Z,99027.41
2022-11-27T12:46:59.652Z,99017.31
2022-11-27T12:50:14.596Z,99026.19
2022-11-27T12:53:52.049Z,99027.94
2022-11-27T12:56:57.901Z,99017.97
2022-11-27T13:00:06.422Z,99017.00
2022-11-27T13:03:22.287Z,99012.81
2022-11-27T13:06:24.906Z,99014.25
2022-11-27T13:09:37.011Z,99021.53
2022-11-27T13:12:50.865Z,99016.63
2022-11-27T13:15:56.914Z,99016.31
2022-11-27T13:19:16.185Z,99016.69
2022-11-27T13:22:29.951Z,99020.88
2022-11-27T13:25:34.936Z,99013.53
2022-11-27T13:28:53.284Z,99011.88
2022-11-27T13:31:57.593Z,99013.13
2022-11-27T13:35:03.328Z,99012.50
2022-11-27T13:38:25.418Z,99011.69
2022-11-27T13:41:34.274Z,99011.47
2022-11-27T13:44:40.286Z,99020.03
2022-11-27T13:47:44.004Z,99011.38
2022-11-27T13:50:46.243Z,99017.09
2022-11-27T13:53:48.159Z,99012.72
2022-11-27T13:56:50.023Z,99014.19
2022-11-27T14:00:05.884Z,99010.84
2022-11-27T14:03:24.572Z,99009.19
2022-11-27T14:06:29.251Z,99017.94
2022-11-27T14:09:47.139Z,99010.09
2022-11-27T14:12:57.318Z,99009.88
2022-11-27T14:16:02.363Z,99015.44
2022-11-27T14:19:06.894Z,99012.28
2022-11-27T14:23:07.145Z,99016.69
2022-11-27T14:26:25.136Z,99018.34
2022-11-27T14:29:31.020Z,99018.13
2022-11-27T14:32:35.696Z,99012.63
2022-11-27T14:35:37.722Z,99014.50
2022-11-27T14:38:40.242Z,99011.78
2022-11-27T14:41:42.079Z,99012.69
2022-11-27T14:44:43.969Z,99005.41
2022-11-27T14:47:53.064Z,99009.59
2022-11-27T14:50:56.208Z,99002.91
2022-11-27T14:54:03.046Z,99011.88
2022-11-27T14:57:06.167Z,98994.53
2022-11-27T15:00:17.676Z,99000.09
2022-11-27T15:03:20.848Z,98990.13
2022-11-27T15:06:23.286Z,98995.78
2022-11-27T15:09:32.301Z,99002.97
2022-11-27T15:12:38.460Z,98986.88
2022-11-27T15:15:44.079Z,98992.00
2022-11-27T15:18:58.194Z,98992.91
2022-11-27T15:22:00.399Z,98988.16
2022-11-27T15:25:05.653Z,98985.38
2022-11-27T15:28:50.142Z,98986.56
2022-11-27T15:31:53.027Z,98994.66
2022-11-27T15:34:55.623Z,98991.28
2022-11-27T15:38:05.678Z,98984.97
2022-11-27T15:41:28.864Z,98988.72
2022-11-27T15:44:32.931Z,98984.59
2022-11-27T15:47:37.139Z,98966.44
2022-11-27T15:50:39.432Z,98981.81
2022-11-27T15:53:41.695Z,98985.72
2022-11-27T15:56:43.843Z,98991.78
2022-11-27T15:59:46.085Z,98994.88
2022-11-27T16:02:48.611Z,98985.78
2022-11-27T16:05:51.259Z,98994.84
2022-11-27T16:09:01.229Z,99001.94
2022-11-27T16:12:03.734Z,99003.75
2022-11-27T16:15:09.968Z,99002.63
2022-11-27T16:18:12.184Z,99002.34
2022-11-27T16:21:16.233Z,99002.03
2022-11-27T16:24:18.822Z,99002.97
2022-11-27T16:27:21.744Z,99009.84
2022-11-27T16:30:26.472Z,99006.88
2022-11-27T16:33:30.614Z,99003.06
2022-11-27T16:36:33.465Z,99003.03
2022-11-27T16:39:36.039Z,99004.34
2022-11-27T16:42:38.803Z,98996.78
2022-11-27T16:45:41.605Z,99000.63
2022-11-27T16:48:45.434Z,99009.31
2022-11-27T16:51:49.182Z,99006.78
2022-11-27T16:54:55.512Z,99002.75
2022-11-27T16:57:59.113Z,98999.66
2022-11-27T17:01:13.460Z,99009.38
2022-11-27T17:04:19.666Z,99009.38
2022-11-27T17:07:22.603Z,99000.47
2022-11-27T17:10:25.225Z,98990.06
2022-11-27T17:13:27.654Z,98983.97
2022-11-27T17:16:29.960Z,98986.75
2022-11-27T17:19:34.594Z,98985.53
2022-11-27T17:22:37.394Z,98992.75
2022-11-27T17:25:42.025Z,99001.22
2022-11-27T17:28:46.653Z,99005.13
2022-11-27T17:31:50.963Z,99001.09
2022-11-27T17:34:53.523Z,98998.34
2022-11-27T17:37:56.574Z,98992.78
2022-11-27T17:41:09.145Z,98988.22
2022-11-27T17:44:11.394Z,98987.13
2022-11-27T17:47:13.530Z,98996.25
2022-11-27T17:50:15.589Z,98990.09
2022-11-27T17:53:19.620Z,98988.31
2022-11-27T17:56:22.285Z,98990.53
2022-11-27T17:59:24.786Z,98985.66
2022-11-27T18:02:27.248Z,98974.75
2022-11-27T18:05:29.640Z,98977.09
2022-11-27T18:08:33.054Z,98973.50
2022-11-27T18:11:35.469Z,98977.66
2022-11-27T18:14:37.877Z,98981.31
2022-11-27T18:17:40.791Z,98977.94
2022-11-27T18:20:44.355Z,98977.13
2022-11-27T18:27:15.654Z,98968.84
2022-11-27T18:30:18.059Z,98964.03
2022-11-27T18:33:20.426Z,98967.00
2022-11-27T18:36:23.289Z,98971.47
2022-11-27T18:39:26.864Z,98971.66
2022-11-27T18:42:30.925Z,98972.84
2022-11-27T18:45:33.316Z,98962.72
2022-11-27T18:48:39.566Z,98959.09
2022-11-27T18:51:41.912Z,98960.78
2022-11-27T18:54:44.557Z,98961.78
2022-11-27T18:57:47.981Z,98961.25
2022-11-27T19:00:51.738Z,98958.63
2022-11-27T19:03:55.032Z,98964.22
2022-11-27T19:06:58.453Z,98957.41
2022-11-27T19:10:06.178Z,98958.91
2022-11-27T19:13:09.047Z,98958.25
2022-11-27T19:16:22.964Z,98960.00
2022-11-27T19:22:50.883Z,98953.97
2022-11-27T19:25:55.983Z,98949.31
2022-11-27T19:29:08.494Z,98944.31
2022-11-27T19:32:23.293Z,98947.66
2022-11-27T19:35:27.515Z,98936.88
2022-11-27T19:38:34.395Z,98948.19
2022-11-27T19:41:41.669Z,98942.56
2022-11-27T19:44:46.265Z,98947.09
2022-11-27T19:47:50.244Z,98934.75
2022-11-27T19:50:53.403Z,98932.59
2022-11-27T19:53:56.091Z,98923.69
2022-11-27T19:56:59.056Z,98934.56
2022-11-27T20:00:01.277Z,98924.97
2022-11-27T20:03:04.739Z,98924.03
2022-11-27T20:06:10.507Z,98921.66
2022-11-27T20:09:14.238Z,98930.75
2022-11-27T20:12:16.546Z,98924.06
2022-11-27T20:15:19.346Z,98927.84
2022-11-27T20:18:22.963Z,98925.53
2022-11-27T20:21:26.025Z,98934.09
2022-11-27T20:24:28.586Z,98924.97
2022-11-27T20:27:32.330Z,98928.16
2022-11-27T20:30:38.374Z,98926.09
2022-11-27T20:33:41.257Z,98923.78
2022-11-27T20:36:44.251Z,98932.72
2022-11-27T20:39:49.324Z,98928.88
2022-11-27T20:42:52.565Z,98936.13
2022-11-27T20:45:55.200Z,98931.78
2022-11-27T20:49:05.704Z,98936.22
2022-11-27T20:52:11.830Z,98933.09
2022-11-27T20:55:14.254Z,98938.72
2022-11-27T20:58:17.753Z,98935.66
2022-11-27T21:01:22.741Z,98931.31
2022-11-27T21:04:26.706Z,98925.53
2022-11-27T21:07:29.592Z,98926.38
2022-11-27T21:10:32.386Z,98926.94
2022-11-27T21:13:34.489Z,98922.75
2022-11-27T21:16:42.353Z,98912.34
2022-11-27T21:19:45.207Z,98909.94
2022-11-27T21:22:48.008Z,98914.00
2022-11-27T21:25:50.551Z,98914.00
2022-11-27T21:28:53.054Z,98915.88
2022-11-27T21:31:55.769Z,98901.75
2022-11-27T21:34:59.388Z,98910.13
2022-11-27T21:38:02.299Z,98909.16
2022-11-27T21:41:05.180Z,98909.63
2022-11-27T21:44:07.171Z,98894.31
2022-11-27T21:47:12.353Z,98896.16
2022-11-27T21:50:15.367Z,98886.50
2022-11-27T21:53:17.828Z,98877.41
2022-11-27T21:56:22.759Z,98864.56
2022-11-27T21:59:24.852Z,98869.41
2022-11-27T22:02:27.432Z,98867.53
2022-11-27T22:05:30.297Z,98863.25
2022-11-27T22:11:52.593Z,98851.63
2022-11-27T22:14:55.332Z,98844.78
2022-11-27T22:17:57.731Z,98837.09
2022-11-27T22:21:07.034Z,98835.59
2022-11-27T22:24:19.472Z,98838.38
2022-11-27T22:27:26.367Z,98832.81
2022-11-27T22:30:31.201Z,98829.09
2022-11-27T22:33:35.859Z,98830.53
2022-11-27T22:36:38.070Z,98826.31
2022-11-27T22:39:39.944Z,98824.91
2022-11-27T22:42:42.060Z,98833.63
2022-11-27T22:45:48.113Z,98825.97
2022-11-27T22:48:58.472Z,98828.06
2022-11-27T22:52:00.366Z,98831.88
2022-11-27T22:55:03.890Z,98822.19
2022-11-27T22:58:05.637Z,98818.59
2022-11-27T23:01:19.027Z,98820.91
2022-11-27T23:04:23.250Z,98821.59
2022-11-27T23:07:25.597Z,98827.13
2022-11-27T23:10:27.721Z,98826.09
2022-11-27T23:13:46.356Z,98826.66
2022-11-27T23:16:51.259Z,98831.09
2022-11-27T23:19:53.161Z,98824.31
2022-11-27T23:22:55.112Z,98826.41
2022-11-27T23:26:02.816Z,98827.19
2022-11-27T23:29:05.341Z,98824.41
2022-11-27T23:32:07.436Z,98829.25
2022-11-27T23:35:10.110Z,98829.84
2022-11-27T23:38:12.271Z,98825.06
2022-11-27T23:41:25.413Z,98829.41
2022-11-27T23:44:27.306Z,98815.94
2022-11-27T23:47:30.478Z,98823.31
2022-11-27T23:50:32.354Z,98816.91
2022-11-27T23:53:34.303Z,98818.22
2022-11-27T23:56:37.379Z,98815.78
2022-11-27T23:59:46.006Z,98815.13
